createdAt,value
2019-03-24T00:01:52.583Z,76.27
2019-03-24T00:04:54.493Z,77.37
2019-03-24T00:07:56.961Z,81.97
2019-03-24T00:10:59.059Z,86.17
2019-03-24T00:14:00.971Z,80.13
2019-03-24T00:17:02.862Z,78.10
2019-03-24T00:20:05.748Z,81.03
2019-03-24T00:23:07.639Z,76.47
2019-03-24T00:26:09.557Z,77.53
2019-03-24T00:29:11.591Z,71.57
2019-03-24T00:32:13.529Z,74.40
2019-03-24T00:35:15.640Z,73.50
2019-03-24T00:38:17.541Z,66.90
2019-03-24T00:41:19.510Z,69.97
2019-03-24T00:44:21.381Z,63.73
2019-03-24T00:47:23.316Z,71.23
2019-03-24T00:50:25.234Z,61.10
2019-03-24T00:53:27.148Z,56.17
2019-03-24T00:56:29.092Z,62.17
2019-03-24T00:59:31.032Z,67.27
2019-03-24T01:02:33.026Z,60.60
2019-03-24T01:05:34.986Z,68.50
2019-03-24T01:08:36.845Z,61.73
2019-03-24T01:11:38.742Z,67.13
2019-03-24T01:14:40.663Z,73.77
2019-03-24T01:17:42.550Z,63.67
2019-03-24T01:20:44.440Z,71.50
2019-03-24T01:23:46.364Z,55.03
2019-03-24T01:26:48.339Z,57.93
2019-03-24T01:29:50.172Z,54.70
2019-03-24T01:32:52.208Z,58.70
2019-03-24T01:35:55.138Z,53.27
2019-03-24T01:38:56.989Z,52.03
2019-03-24T01:41:58.863Z,52.57
2019-03-24T01:45:01.339Z,46.37
2019-03-24T01:48:03.428Z,42.37
2019-03-24T01:51:05.346Z,44.57
2019-03-24T01:54:07.220Z,48.13
2019-03-24T01:57:09.346Z,45.37
2019-03-24T02:00:11.423Z,40.83
2019-03-24T02:03:13.658Z,44.87
2019-03-24T02:06:15.541Z,44.03
2019-03-24T02:09:17.539Z,45.20
2019-03-24T02:12:20.507Z,46.10
2019-03-24T02:15:22.541Z,44.00
2019-03-24T02:18:24.366Z,46.63
2019-03-24T02:21:28.094Z,34.63
2019-03-24T02:24:29.976Z,38.47
2019-03-24T02:27:31.977Z,38.13
2019-03-24T02:30:33.892Z,38.80
2019-03-24T02:33:35.908Z,40.97
2019-03-24T02:36:38.119Z,38.07
2019-03-24T02:39:39.970Z,42.23
2019-03-24T02:42:41.849Z,40.80
2019-03-24T02:45:44.145Z,41.57
2019-03-24T02:48:46.107Z,42.00
2019-03-24T02:51:47.983Z,46.40
2019-03-24T02:54:49.870Z,37.10
2019-03-24T02:57:51.723Z,33.47
2019-03-24T03:00:53.648Z,40.27
2019-03-24T03:03:55.574Z,41.93
2019-03-24T03:06:57.499Z,41.80
2019-03-24T03:09:59.340Z,41.40
2019-03-24T03:13:01.244Z,38.93
2019-03-24T03:16:03.189Z,39.27
2019-03-24T03:19:05.092Z,39.17
2019-03-24T03:22:06.932Z,40.93
2019-03-24T03:25:09.690Z,38.27
2019-03-24T03:28:11.577Z,45.80
2019-03-24T03:31:13.502Z,36.33
2019-03-24T03:34:15.449Z,38.93
2019-03-24T03:37:17.387Z,38.23
2019-03-24T03:40:20.180Z,34.27
2019-03-24T03:43:22.081Z,41.40
2019-03-24T03:46:24.057Z,42.23
2019-03-24T03:49:25.974Z,43.07
2019-03-24T03:52:28.188Z,35.57
2019-03-24T03:55:30.062Z,39.40
2019-03-24T03:58:31.921Z,39.70
2019-03-24T04:01:33.870Z,38.43
2019-03-24T04:04:36.057Z,39.07
2019-03-24T04:07:38.046Z,41.20
2019-03-24T04:10:39.890Z,38.77
2019-03-24T04:13:41.791Z,38.13
2019-03-24T04:16:43.660Z,40.63
2019-03-24T04:19:45.620Z,36.57
2019-03-24T04:22:47.545Z,37.27
2019-03-24T04:25:49.502Z,37.07
2019-03-24T04:28:51.419Z,48.27
2019-03-24T04:31:53.320Z,36.00
2019-03-24T04:34:55.227Z,42.03
2019-03-24T04:37:57.195Z,41.00
2019-03-24T04:40:59.117Z,32.47
2019-03-24T04:44:01.096Z,37.57
2019-03-24T04:47:03.026Z,38.77
2019-03-24T04:50:07.060Z,39.03
2019-03-24T04:53:09.562Z,41.63
2019-03-24T04:56:11.465Z,41.17
2019-03-24T04:59:13.367Z,37.50
2019-03-24T05:02:15.331Z,38.63
2019-03-24T05:05:17.228Z,44.20
2019-03-24T05:08:19.151Z,41.87
2019-03-24T05:11:21.031Z,35.10
2019-03-24T05:14:22.947Z,34.47
2019-03-24T05:17:27.321Z,40.53
2019-03-24T05:20:29.016Z,36.13
2019-03-24T05:23:30.911Z,47.07
2019-03-24T05:26:32.827Z,32.63
2019-03-24T05:29:34.687Z,36.87
2019-03-24T05:32:36.903Z,35.17
2019-03-24T05:35:38.831Z,43.80
2019-03-24T05:38:40.795Z,37.80
2019-03-24T05:41:42.716Z,37.20
2019-03-24T05:44:44.671Z,36.63
2019-03-24T05:47:46.583Z,40.57
2019-03-24T05:50:48.520Z,33.03
2019-03-24T05:53:50.873Z,30.67
2019-03-24T05:56:52.781Z,36.17
2019-03-24T05:59:54.761Z,28.40
2019-03-24T06:02:57.400Z,42.33
2019-03-24T06:05:59.405Z,63.73
2019-03-24T06:09:01.271Z,240.53
2019-03-24T06:12:03.355Z,82.27
2019-03-24T06:15:07.130Z,38.43
2019-03-24T06:18:09.036Z,37.07
2019-03-24T06:21:10.980Z,109.17
2019-03-24T06:24:13.008Z,92.53
2019-03-24T06:27:14.909Z,37.33
2019-03-24T06:30:17.416Z,34.60
2019-03-24T06:33:19.267Z,61.83
2019-03-24T06:36:21.343Z,37.83
2019-03-24T06:39:23.272Z,32.47
2019-03-24T06:42:25.117Z,41.33
2019-03-24T06:45:28.669Z,31.77
2019-03-24T06:48:30.738Z,38.87
2019-03-24T06:51:32.589Z,42.13
2019-03-24T06:54:34.492Z,26.87
2019-03-24T06:57:36.337Z,48.63
2019-03-24T07:00:38.226Z,41.80
2019-03-24T07:03:41.185Z,35.87
2019-03-24T07:06:43.116Z,45.80
2019-03-24T07:09:45.002Z,39.03
2019-03-24T07:12:47.168Z,33.63
2019-03-24T07:15:49.057Z,61.73
2019-03-24T07:18:50.938Z,26.03
2019-03-24T07:21:52.808Z,23.97
2019-03-24T07:24:54.687Z,22.20
2019-03-24T07:27:56.618Z,22.40
2019-03-24T07:30:58.614Z,21.43
2019-03-24T07:34:00.491Z,19.67
2019-03-24T07:37:02.540Z,24.70
2019-03-24T07:40:07.411Z,22.20
2019-03-24T07:43:09.345Z,24.97
2019-03-24T07:46:11.273Z,24.43
2019-03-24T07:49:13.102Z,27.10
2019-03-24T07:52:15.072Z,19.13
2019-03-24T07:55:16.991Z,18.73
2019-03-24T07:58:18.833Z,70.43
2019-03-24T08:01:20.751Z,16.07
2019-03-24T08:04:22.607Z,20.67
2019-03-24T08:07:24.626Z,23.83
2019-03-24T08:10:26.499Z,30.87
2019-03-24T08:13:29.456Z,18.40
2019-03-24T08:16:31.428Z,19.23
2019-03-24T08:19:33.309Z,25.97
2019-03-24T08:22:35.183Z,25.43
2019-03-24T08:25:37.139Z,20.40
2019-03-24T08:28:39.027Z,19.00
2019-03-24T08:31:40.981Z,20.20
2019-03-24T08:34:42.862Z,16.60
2019-03-24T08:37:44.804Z,16.60
2019-03-24T08:40:46.789Z,18.80
2019-03-24T08:43:48.903Z,20.53
2019-03-24T08:46:50.822Z,25.77
2019-03-24T08:49:52.779Z,21.67
2019-03-24T08:52:54.733Z,25.13
2019-03-24T08:55:56.622Z,13.97
2019-03-24T08:58:58.497Z,15.63
2019-03-24T09:02:00.450Z,19.40
2019-03-24T09:05:04.029Z,15.67
2019-03-24T09:08:07.388Z,22.83
2019-03-24T09:11:09.293Z,19.20
2019-03-24T09:14:11.265Z,15.23
2019-03-24T09:17:13.222Z,19.93
2019-03-24T09:20:15.229Z,25.77
2019-03-24T09:23:17.191Z,16.57
2019-03-24T09:26:19.151Z,13.23
2019-03-24T09:29:21.671Z,19.13
2019-03-24T09:32:23.730Z,18.37
2019-03-24T09:35:25.729Z,15.93
2019-03-24T09:38:27.715Z,14.50
2019-03-24T09:41:29.793Z,20.53
2019-03-24T09:44:31.757Z,23.80
2019-03-24T09:47:34.183Z,19.00
2019-03-24T09:50:36.079Z,18.73
2019-03-24T09:53:38.091Z,16.83
2019-03-24T09:56:40.034Z,19.53
2019-03-24T09:59:42.994Z,14.23
2019-03-24T10:02:44.893Z,24.50
2019-03-24T10:05:46.846Z,20.40
2019-03-24T10:08:48.771Z,22.57
2019-03-24T10:11:50.734Z,26.50
2019-03-24T10:14:52.688Z,21.63
2019-03-24T10:17:54.580Z,18.23
2019-03-24T10:20:56.602Z,16.43
2019-03-24T10:23:58.550Z,21.53
2019-03-24T10:27:01.485Z,19.10
2019-03-24T10:30:08.066Z,21.77
2019-03-24T10:33:09.998Z,14.57
2019-03-24T10:36:12.037Z,9.80
2019-03-24T10:39:14.031Z,13.23
2019-03-24T10:42:16.076Z,12.87
2019-03-24T10:45:18.025Z,10.23
2019-03-24T10:48:19.938Z,12.13
2019-03-24T10:51:22.489Z,15.13
2019-03-24T10:54:24.358Z,13.10
2019-03-24T10:57:26.287Z,12.43
2019-03-24T11:00:41.578Z,12.63
2019-03-24T11:03:44.019Z,17.20
2019-03-24T11:06:45.955Z,12.90
2019-03-24T11:09:49.162Z,15.53
2019-03-24T11:12:52.211Z,11.93
2019-03-24T11:15:54.165Z,18.57
2019-03-24T11:18:56.082Z,11.80
2019-03-24T11:21:58.157Z,17.63
2019-03-24T11:25:00.302Z,15.90
2019-03-24T11:28:02.280Z,14.90
2019-03-24T11:31:04.224Z,13.77
2019-03-24T11:34:06.159Z,15.97
2019-03-24T11:37:08.122Z,14.67
2019-03-24T11:40:10.634Z,15.30
2019-03-24T11:43:12.770Z,14.60
2019-03-24T11:46:14.629Z,16.23
2019-03-24T11:49:17.476Z,12.20
2019-03-24T11:52:19.474Z,13.97
2019-03-24T11:55:21.444Z,12.13
2019-03-24T11:58:23.461Z,15.83
2019-03-24T12:01:25.434Z,15.67
2019-03-24T12:04:27.340Z,13.70
2019-03-24T12:07:29.225Z,11.27
2019-03-24T12:10:31.261Z,11.50
2019-03-24T12:13:34.617Z,12.47
2019-03-24T12:16:36.597Z,13.93
2019-03-24T12:19:38.554Z,12.30
2019-03-24T12:22:40.525Z,13.73
2019-03-24T12:25:42.543Z,14.37
2019-03-24T12:28:44.378Z,16.30
2019-03-24T12:31:46.331Z,13.97
2019-03-24T12:34:48.304Z,21.07
2019-03-24T12:37:50.267Z,15.00
2019-03-24T12:40:52.269Z,15.73
2019-03-24T12:43:54.335Z,13.50
2019-03-24T12:46:56.258Z,14.57
2019-03-24T12:50:08.261Z,13.87
2019-03-24T12:53:02.697Z,14.63
2019-03-24T12:56:04.727Z,10.87
2019-03-24T12:59:06.726Z,16.90
2019-03-24T13:02:08.740Z,14.80
2019-03-24T13:05:11.957Z,16.17
2019-03-24T13:08:15.994Z,17.07
2019-03-24T13:11:19.079Z,14.27
2019-03-24T13:14:21.066Z,9.83
2019-03-24T13:17:22.982Z,10.03
2019-03-24T13:20:37.741Z,15.53
2019-03-24T13:23:28.740Z,11.83
2019-03-24T13:26:30.855Z,17.53
2019-03-24T13:29:32.762Z,15.70
2019-03-24T13:32:34.686Z,18.53
2019-03-24T13:35:36.624Z,15.13
2019-03-24T13:38:38.576Z,12.60
2019-03-24T13:41:40.561Z,18.13
2019-03-24T13:44:42.601Z,13.60
2019-03-24T13:47:44.534Z,17.77
2019-03-24T13:50:46.459Z,15.73
2019-03-24T13:53:48.410Z,15.13
2019-03-24T13:56:50.372Z,14.87
2019-03-24T13:59:52.281Z,25.50
2019-03-24T14:02:54.427Z,16.83
2019-03-24T14:05:56.324Z,15.17
2019-03-24T14:08:58.376Z,14.23
2019-03-24T14:12:01.213Z,16.63
2019-03-24T14:15:05.022Z,28.63
2019-03-24T14:18:06.973Z,14.00
2019-03-24T14:21:08.938Z,18.67
2019-03-24T14:24:10.866Z,17.33
2019-03-24T14:27:12.811Z,22.17
2019-03-24T14:30:15.191Z,24.00
2019-03-24T14:33:17.096Z,17.83
2019-03-24T14:36:19.057Z,17.07
2019-03-24T14:39:21.003Z,15.77
2019-03-24T14:42:22.997Z,17.77
2019-03-24T14:45:25.099Z,15.03
2019-03-24T14:48:27.056Z,18.33
2019-03-24T14:51:29.019Z,17.30
2019-03-24T14:54:30.986Z,16.07
2019-03-24T14:57:32.925Z,15.00
2019-03-24T15:00:37.164Z,22.17
2019-03-24T15:03:39.104Z,16.33
2019-03-24T15:06:41.063Z,14.33
2019-03-24T15:09:42.982Z,18.50
2019-03-24T15:12:45.035Z,19.90
2019-03-24T15:15:46.997Z,16.40
2019-03-24T15:18:49.016Z,18.43
2019-03-24T15:21:50.978Z,14.67
2019-03-24T15:24:52.889Z,25.13
2019-03-24T15:27:54.841Z,17.13
2019-03-24T15:30:56.733Z,19.13
2019-03-24T15:33:58.743Z,19.03
2019-03-24T15:37:00.611Z,21.90
2019-03-24T15:40:04.282Z,17.53
2019-03-24T15:43:06.264Z,30.03
2019-03-24T15:46:08.181Z,21.07
2019-03-24T15:49:10.117Z,20.83
2019-03-24T15:52:12.036Z,20.10
2019-03-24T15:55:13.957Z,19.13
2019-03-24T15:58:15.842Z,22.57
2019-03-24T16:01:17.778Z,26.07
2019-03-24T16:04:19.645Z,17.03
2019-03-24T16:07:21.669Z,13.40
2019-03-24T16:10:34.700Z,20.10
2019-03-24T16:13:28.143Z,22.50
2019-03-24T16:16:30.104Z,20.97
2019-03-24T16:19:32.000Z,22.23
2019-03-24T16:22:33.960Z,20.47
2019-03-24T16:25:37.630Z,21.17
2019-03-24T16:28:40.582Z,22.03
2019-03-24T16:31:42.459Z,26.47
2019-03-24T16:34:44.411Z,31.17
2019-03-24T16:37:46.345Z,24.00
2019-03-24T16:40:48.292Z,24.97
2019-03-24T16:43:50.256Z,24.73
2019-03-24T16:46:52.297Z,19.30
2019-03-24T16:49:55.839Z,15.73
2019-03-24T16:52:58.645Z,15.77
2019-03-24T16:56:02.800Z,22.63
2019-03-24T16:59:06.060Z,24.70
2019-03-24T17:02:13.174Z,24.70
2019-03-24T17:05:17.991Z,18.30
2019-03-24T17:08:23.748Z,27.20
2019-03-24T17:11:25.943Z,18.73
2019-03-24T17:14:29.707Z,24.10
2019-03-24T17:17:32.695Z,23.17
2019-03-24T17:20:35.019Z,16.40
2019-03-24T17:23:37.269Z,19.97
2019-03-24T17:26:41.560Z,22.30
2019-03-24T17:29:43.589Z,25.40
2019-03-24T17:32:45.512Z,19.87
2019-03-24T17:35:47.532Z,21.90
2019-03-24T17:38:49.432Z,21.37
2019-03-24T17:41:51.703Z,21.17
2019-03-24T17:44:53.666Z,30.87
2019-03-24T17:47:55.782Z,35.33
2019-03-24T17:50:57.955Z,24.63
2019-03-24T17:54:00.290Z,22.23
2019-03-24T17:57:02.346Z,27.60
2019-03-24T18:00:09.721Z,26.03
2019-03-24T18:03:11.629Z,33.80
2019-03-24T18:06:15.758Z,36.77
2019-03-24T18:09:17.939Z,39.93
2019-03-24T18:12:20.067Z,28.97
2019-03-24T18:15:24.534Z,26.57
2019-03-24T18:18:26.655Z,23.03
2019-03-24T18:21:30.435Z,23.30
2019-03-24T18:24:32.601Z,24.57
2019-03-24T18:27:34.487Z,23.53
2019-03-24T18:30:38.141Z,21.53
2019-03-24T18:33:40.149Z,27.27
2019-03-24T18:36:42.538Z,29.93
2019-03-24T18:39:44.433Z,25.50
2019-03-24T18:42:48.118Z,35.37
2019-03-24T18:45:50.107Z,27.13
2019-03-24T18:48:53.849Z,47.90
2019-03-24T18:51:56.161Z,31.70
2019-03-24T18:54:58.080Z,26.13
2019-03-24T18:58:00.432Z,33.67
2019-03-24T19:01:02.281Z,31.70
2019-03-24T19:04:04.214Z,29.63
2019-03-24T19:07:07.976Z,26.07
2019-03-24T19:10:14.418Z,29.80
2019-03-24T19:13:19.449Z,31.90
2019-03-24T19:16:25.116Z,29.43
2019-03-24T19:19:29.158Z,33.53
2019-03-24T19:22:33.862Z,28.37
2019-03-24T19:25:35.046Z,37.00
2019-03-24T19:28:37.901Z,28.60
2019-03-24T19:31:41.577Z,35.50
2019-03-24T19:34:44.482Z,29.67
2019-03-24T19:37:46.697Z,33.37
2019-03-24T19:40:48.983Z,33.30
2019-03-24T19:43:52.888Z,31.57
2019-03-24T19:46:56.870Z,29.37
2019-03-24T19:50:01.639Z,33.00
2019-03-24T19:53:03.654Z,41.03
2019-03-24T19:56:05.568Z,31.67
2019-03-24T19:59:09.374Z,28.47
2019-03-24T20:02:11.444Z,30.47
2019-03-24T20:05:18.630Z,35.97
2019-03-24T20:08:21.254Z,30.47
2019-03-24T20:11:26.719Z,34.30
2019-03-24T20:14:29.530Z,35.53
2019-03-24T20:17:34.895Z,34.40
2019-03-24T20:20:36.954Z,32.70
2019-03-24T20:23:40.657Z,31.53
2019-03-24T20:26:42.980Z,44.37
2019-03-24T20:29:45.039Z,41.87
2019-03-24T20:32:48.950Z,32.40
2019-03-24T20:35:51.493Z,36.20
2019-03-24T20:38:55.628Z,31.37
2019-03-24T20:41:58.159Z,35.43
2019-03-24T20:45:02.231Z,33.27
2019-03-24T20:48:05.665Z,38.17
2019-03-24T20:51:08.388Z,33.27
2019-03-24T20:54:10.350Z,34.73
2019-03-24T20:57:12.256Z,35.93
2019-03-24T21:00:15.983Z,38.03
2019-03-24T21:03:19.833Z,48.87
2019-03-24T21:06:21.668Z,35.90
2019-03-24T21:09:23.601Z,49.60
2019-03-24T21:12:25.488Z,41.83
2019-03-24T21:15:27.450Z,41.30
2019-03-24T21:18:29.378Z,40.77
2019-03-24T21:21:31.264Z,42.43
2019-03-24T21:24:33.179Z,43.83
2019-03-24T21:27:35.130Z,41.87
2019-03-24T21:30:39.084Z,44.63
2019-03-24T21:33:41.003Z,37.20
2019-03-24T21:36:43.022Z,43.77
2019-03-24T21:39:45.873Z,41.53
2019-03-24T21:42:47.823Z,41.73
2019-03-24T21:45:49.722Z,45.83
2019-03-24T21:48:51.732Z,44.00
2019-03-24T21:51:55.443Z,37.97
2019-03-24T21:54:57.402Z,38.33
2019-03-24T21:57:59.354Z,46.80
2019-03-24T22:01:01.363Z,41.73
2019-03-24T22:04:03.244Z,42.23
2019-03-24T22:07:05.121Z,43.43
2019-03-24T22:10:07.040Z,39.43
2019-03-24T22:13:08.929Z,37.73
2019-03-24T22:16:10.781Z,36.60
2019-03-24T22:19:12.905Z,39.97
2019-03-24T22:22:14.766Z,38.27
2019-03-24T22:25:16.689Z,35.87
2019-03-24T22:28:18.552Z,44.20
2019-03-24T22:31:20.461Z,34.97
2019-03-24T22:34:22.329Z,34.63
2019-03-24T22:37:24.195Z,36.80
2019-03-24T22:40:26.111Z,33.90
2019-03-24T22:43:27.961Z,33.43
2019-03-24T22:46:29.856Z,41.37
2019-03-24T22:49:31.768Z,42.93
2019-03-24T22:52:33.694Z,40.10
2019-03-24T22:55:35.566Z,38.50
2019-03-24T22:58:37.434Z,41.43
2019-03-24T23:01:39.312Z,45.43
2019-03-24T23:04:41.168Z,47.27
2019-03-24T23:07:43.006Z,39.97
2019-03-24T23:10:44.903Z,42.83
2019-03-24T23:13:46.742Z,35.37
2019-03-24T23:16:48.650Z,37.00
2019-03-24T23:19:51.152Z,32.20
2019-03-24T23:22:53.036Z,36.30
2019-03-24T23:25:54.935Z,32.03
2019-03-24T23:28:56.823Z,34.23
2019-03-24T23:31:59.776Z,36.33
2019-03-24T23:35:01.659Z,27.73
2019-03-24T23:38:03.540Z,30.40
2019-03-24T23:41:05.423Z,27.27
2019-03-24T23:44:07.375Z,28.67
2019-03-24T23:47:09.226Z,28.33
2019-03-24T23:50:11.446Z,37.50
2019-03-24T23:53:13.453Z,30.40
2019-03-24T23:56:16.483Z,29.57
2019-03-24T23:59:18.328Z,29.90
